createdAt,value
2018-07-10T00:02:37.319Z,11.07
2018-07-10T00:07:26.701Z,11.40
2018-07-10T00:10:07.182Z,7.93
2018-07-10T00:12:36.573Z,5.97
2018-07-10T00:15:05.937Z,6.30
2018-07-10T00:17:35.308Z,5.90
2018-07-10T00:20:04.600Z,6.03
2018-07-10T00:22:34.010Z,7.13
2018-07-10T00:25:04.409Z,6.50
2018-07-10T00:27:33.760Z,6.60
2018-07-10T00:30:03.070Z,6.03
2018-07-10T00:32:32.377Z,6.30
2018-07-10T00:35:01.772Z,5.37
2018-07-10T00:37:31.114Z,6.10
2018-07-10T00:40:00.489Z,5.67
2018-07-10T00:42:29.959Z,5.97
2018-07-10T00:44:59.332Z,6.20
2018-07-10T00:47:28.612Z,6.20
2018-07-10T00:49:58.060Z,6.20
2018-07-10T00:52:33.961Z,5.70
2018-07-10T00:55:03.590Z,6.20
2018-07-10T00:57:33.497Z,5.13
2018-07-10T01:00:03.317Z,5.60
2018-07-10T01:02:32.657Z,5.70
2018-07-10T01:05:01.994Z,6.37
2018-07-10T01:07:31.429Z,6.77
2018-07-10T01:10:00.707Z,6.20
2018-07-10T01:12:30.024Z,6.70
2018-07-10T01:14:59.340Z,6.73
2018-07-10T01:17:28.774Z,6.60
2018-07-10T01:19:58.274Z,6.73
2018-07-10T01:22:27.618Z,7.30
2018-07-10T01:24:56.904Z,7.13
2018-07-10T01:27:26.335Z,8.33
2018-07-10T01:29:55.728Z,8.00
2018-07-10T01:32:25.121Z,8.37
2018-07-10T01:34:54.909Z,9.70
2018-07-10T01:37:24.265Z,8.30
2018-07-10T01:39:53.649Z,7.77
2018-07-10T01:42:22.993Z,6.80
2018-07-10T01:44:52.340Z,6.13
2018-07-10T01:47:21.676Z,6.57
2018-07-10T01:49:51.004Z,5.83
2018-07-10T01:52:20.361Z,6.20
2018-07-10T01:54:49.705Z,6.47
2018-07-10T01:57:19.051Z,6.67
2018-07-10T01:59:48.576Z,5.43
2018-07-10T02:02:18.004Z,5.43
2018-07-10T02:04:47.309Z,5.60
2018-07-10T02:07:16.690Z,5.17
2018-07-10T02:09:45.973Z,5.70
2018-07-10T02:12:15.252Z,6.20
2018-07-10T02:14:44.669Z,5.67
2018-07-10T02:17:14.078Z,6.07
2018-07-10T02:19:43.394Z,6.17
2018-07-10T02:22:12.669Z,6.23
2018-07-10T02:24:42.291Z,7.20
2018-07-10T02:27:11.613Z,6.40
2018-07-10T02:29:40.987Z,5.90
2018-07-10T02:32:10.413Z,6.60
2018-07-10T02:34:39.724Z,7.07
2018-07-10T02:37:09.043Z,7.27
2018-07-10T02:39:38.387Z,6.13
2018-07-10T02:42:07.759Z,7.60
2018-07-10T02:44:37.142Z,6.40
2018-07-10T02:47:06.490Z,6.50
2018-07-10T02:49:35.916Z,7.37
2018-07-10T02:52:07.086Z,6.50
2018-07-10T02:54:41.782Z,6.07
2018-07-10T02:57:14.539Z,7.03
2018-07-10T02:59:44.391Z,6.60
2018-07-10T03:02:21.406Z,6.77
2018-07-10T03:04:55.092Z,6.80
2018-07-10T03:07:24.650Z,7.30
2018-07-10T03:09:54.026Z,6.80
2018-07-10T03:12:23.402Z,7.23
2018-07-10T03:14:52.772Z,6.87
2018-07-10T03:17:22.646Z,6.10
2018-07-10T03:19:52.930Z,6.70
2018-07-10T03:22:22.232Z,6.50
2018-07-10T03:24:51.510Z,6.63
2018-07-10T03:27:20.810Z,7.70
2018-07-10T03:29:50.107Z,7.33
2018-07-10T03:32:19.654Z,6.87
2018-07-10T03:34:49.006Z,7.17
2018-07-10T03:37:18.293Z,7.73
2018-07-10T03:39:47.619Z,7.00
2018-07-10T03:42:18.214Z,7.00
2018-07-10T03:44:47.773Z,7.50
2018-07-10T03:47:18.375Z,7.57
2018-07-10T03:49:48.282Z,8.53
2018-07-10T03:52:37.158Z,7.50
2018-07-10T03:55:08.516Z,8.30
2018-07-10T03:57:38.122Z,7.80
2018-07-10T04:00:10.608Z,8.97
2018-07-10T04:02:45.526Z,9.30
2018-07-10T04:05:14.950Z,9.70
2018-07-10T04:07:44.572Z,9.53
2018-07-10T04:10:16.151Z,10.60
2018-07-10T04:12:47.670Z,10.60
2018-07-10T04:15:17.030Z,12.07
2018-07-10T04:18:22.097Z,11.53
2018-07-10T04:21:02.590Z,11.20
2018-07-10T04:23:38.476Z,13.63
2018-07-10T04:26:15.728Z,14.20
2018-07-10T04:28:52.414Z,12.53
2018-07-10T04:31:54.612Z,13.03
2018-07-10T04:34:24.432Z,12.30
2018-07-10T04:36:58.631Z,11.80
2018-07-10T04:39:28.043Z,11.20
2018-07-10T04:42:05.126Z,11.90
2018-07-10T04:44:34.667Z,12.37
2018-07-10T04:47:12.214Z,11.43
2018-07-10T04:50:05.198Z,9.43
2018-07-10T04:52:35.374Z,8.83
2018-07-10T04:55:07.794Z,8.77
2018-07-10T04:57:50.220Z,8.37
2018-07-10T05:00:19.598Z,7.90
2018-07-10T05:02:50.748Z,8.60
2018-07-10T05:05:20.099Z,7.63
2018-07-10T05:07:49.416Z,8.63
2018-07-10T05:10:18.876Z,7.37
2018-07-10T05:12:48.251Z,7.80
2018-07-10T05:15:17.607Z,7.80
2018-07-10T05:17:50.908Z,8.73
2018-07-10T05:20:21.104Z,8.20
2018-07-10T05:22:50.453Z,9.63
2018-07-10T05:25:19.912Z,7.37
2018-07-10T05:27:49.642Z,7.83
2018-07-10T05:30:19.326Z,8.63
2018-07-10T05:32:49.006Z,7.07
2018-07-10T05:35:19.180Z,6.13
2018-07-10T05:37:50.203Z,5.27
2018-07-10T05:40:25.746Z,6.17
2018-07-10T05:42:55.289Z,6.57
2018-07-10T05:45:25.765Z,6.30
2018-07-10T05:47:58.146Z,6.73
2018-07-10T05:50:31.123Z,7.40
2018-07-10T05:53:00.569Z,7.37
2018-07-10T05:55:31.038Z,7.50
2018-07-10T05:58:01.303Z,7.60
2018-07-10T06:00:31.631Z,6.50
2018-07-10T06:03:01.112Z,6.30
2018-07-10T06:05:30.485Z,6.23
2018-07-10T06:07:59.835Z,5.70
2018-07-10T06:10:29.220Z,4.93
2018-07-10T06:13:00.394Z,5.00
2018-07-10T06:15:30.123Z,4.67
2018-07-10T06:17:59.527Z,3.93
2018-07-10T06:20:28.897Z,3.60
2018-07-10T06:22:58.649Z,3.43
2018-07-10T06:25:33.400Z,3.00
2018-07-10T06:28:08.993Z,2.90
2018-07-10T06:30:39.305Z,3.40
2018-07-10T06:33:20.672Z,3.43
2018-07-10T06:36:00.104Z,3.70
2018-07-10T06:38:29.470Z,3.20
2018-07-10T06:40:58.780Z,3.93
2018-07-10T06:43:37.600Z,2.80
2018-07-10T06:46:07.000Z,2.80
2018-07-10T06:48:37.823Z,3.10
2018-07-10T06:51:13.263Z,2.73
2018-07-10T06:53:42.680Z,3.37
2018-07-10T06:56:12.050Z,2.73
2018-07-10T06:58:41.413Z,3.03
2018-07-10T07:01:10.764Z,3.20
2018-07-10T07:03:40.484Z,3.80
2018-07-10T07:06:09.805Z,3.33
2018-07-10T07:08:39.137Z,3.17
2018-07-10T07:11:08.620Z,2.87
2018-07-10T07:13:38.008Z,3.00
2018-07-10T07:16:07.377Z,3.43
2018-07-10T07:18:37.557Z,2.87
2018-07-10T07:21:06.950Z,2.50
2018-07-10T07:23:36.393Z,2.30
2018-07-10T07:26:05.890Z,2.90
2018-07-10T07:28:35.299Z,3.00
2018-07-10T07:31:05.658Z,2.40
2018-07-10T07:33:35.297Z,2.20
2018-07-10T07:36:04.708Z,2.47
2018-07-10T07:38:34.154Z,2.47
2018-07-10T07:41:03.481Z,2.70
2018-07-10T07:43:34.813Z,2.13
2018-07-10T07:46:04.222Z,2.60
2018-07-10T07:48:34.627Z,1.70
2018-07-10T07:51:04.028Z,2.30
2018-07-10T07:53:33.333Z,2.60
2018-07-10T07:56:02.719Z,2.00
2018-07-10T07:58:32.093Z,2.40
2018-07-10T08:01:01.410Z,2.33
2018-07-10T08:03:30.960Z,2.70
2018-07-10T08:06:00.395Z,2.50
2018-07-10T08:08:29.830Z,2.90
2018-07-10T08:10:59.190Z,2.70
2018-07-10T08:13:28.638Z,2.57
2018-07-10T08:15:58.019Z,3.20
2018-07-10T08:18:27.562Z,2.87
2018-07-10T08:20:57.212Z,3.60
2018-07-10T08:23:26.625Z,2.77
2018-07-10T08:25:56.477Z,2.33
2018-07-10T08:28:25.891Z,2.40
2018-07-10T08:30:55.465Z,2.37
2018-07-10T08:33:24.899Z,3.73
2018-07-10T08:35:54.265Z,2.10
2018-07-10T08:38:41.036Z,2.53
2018-07-10T08:41:16.583Z,2.53
2018-07-10T08:43:46.196Z,3.27
2018-07-10T08:46:16.796Z,2.40
2018-07-10T08:48:47.594Z,2.90
2018-07-10T08:51:17.182Z,3.03
2018-07-10T08:53:47.075Z,2.50
2018-07-10T08:56:16.560Z,3.40
2018-07-10T08:58:46.021Z,3.60
2018-07-10T09:01:15.463Z,3.10
2018-07-10T09:03:44.922Z,3.70
2018-07-10T09:06:14.564Z,3.60
2018-07-10T09:08:44.025Z,3.67
2018-07-10T09:11:13.469Z,3.83
2018-07-10T09:13:42.861Z,4.00
2018-07-10T09:16:12.246Z,5.40
2018-07-10T09:18:41.589Z,4.73
2018-07-10T09:21:11.252Z,4.67
2018-07-10T09:23:40.798Z,4.60
2018-07-10T09:26:10.298Z,4.20
2018-07-10T09:28:40.743Z,4.43
2018-07-10T09:31:10.417Z,4.17
2018-07-10T09:33:39.843Z,4.83
2018-07-10T09:36:09.246Z,4.30
2018-07-10T09:38:38.603Z,4.83
2018-07-10T09:41:08.725Z,4.60
2018-07-10T09:43:38.577Z,5.00
2018-07-10T09:46:08.030Z,4.57
2018-07-10T09:48:37.454Z,5.27
2018-07-10T09:51:07.113Z,4.10
2018-07-10T09:53:36.501Z,4.30
2018-07-10T09:56:05.971Z,4.70
2018-07-10T09:58:36.164Z,5.00
2018-07-10T10:01:10.824Z,4.17
2018-07-10T10:03:40.244Z,4.00
2018-07-10T10:06:10.236Z,4.17
2018-07-10T10:08:39.655Z,4.93
2018-07-10T10:11:09.050Z,3.93
2018-07-10T10:13:38.472Z,4.40
2018-07-10T10:16:08.047Z,4.40
2018-07-10T10:18:38.566Z,4.90
2018-07-10T10:21:07.980Z,4.27
2018-07-10T10:23:37.396Z,4.90
2018-07-10T10:26:06.866Z,5.00
2018-07-10T10:28:36.323Z,4.03
2018-07-10T10:31:05.737Z,5.63
2018-07-10T10:33:35.295Z,5.60
2018-07-10T10:36:04.745Z,7.10
2018-07-10T10:38:37.142Z,7.20
2018-07-10T10:41:06.593Z,6.97
2018-07-10T10:43:36.503Z,7.37
2018-07-10T10:46:05.930Z,7.53
2018-07-10T10:48:36.309Z,7.93
2018-07-10T10:51:06.101Z,9.67
2018-07-10T10:53:35.531Z,9.70
2018-07-10T10:56:04.930Z,8.90
2018-07-10T10:58:34.317Z,9.40
2018-07-10T11:01:03.822Z,9.53
2018-07-10T11:03:33.251Z,9.03
2018-07-10T11:06:02.673Z,9.43
2018-07-10T11:08:32.034Z,8.37
2018-07-10T11:11:01.442Z,9.37
2018-07-10T11:13:30.817Z,8.83
2018-07-10T11:16:00.178Z,7.93
2018-07-10T11:18:37.053Z,7.73
2018-07-10T11:23:15.137Z,8.43
2018-07-10T11:25:44.621Z,7.53
2018-07-10T11:28:14.887Z,6.73
2018-07-10T11:30:44.296Z,5.17
2018-07-10T11:33:13.687Z,4.60
2018-07-10T11:35:43.145Z,5.37
2018-07-10T11:38:13.798Z,6.00
2018-07-10T11:40:47.314Z,5.87
2018-07-10T11:43:16.644Z,4.60
2018-07-10T11:45:46.014Z,4.93
2018-07-10T11:48:15.308Z,5.03
2018-07-10T11:50:44.722Z,6.77
2018-07-10T11:53:14.171Z,6.23
2018-07-10T11:55:44.574Z,6.23
2018-07-10T11:58:13.976Z,7.20
2018-07-10T12:00:43.376Z,6.40
2018-07-10T12:03:12.847Z,6.50
2018-07-10T12:05:42.448Z,6.37
2018-07-10T12:08:11.857Z,6.37
2018-07-10T12:10:41.237Z,5.60
2018-07-10T12:13:10.734Z,4.60
2018-07-10T12:15:40.096Z,4.93
2018-07-10T12:18:09.557Z,5.40
2018-07-10T12:20:41.212Z,5.33
2018-07-10T12:23:11.594Z,5.23
2018-07-10T12:25:44.123Z,4.80
2018-07-10T12:28:17.542Z,4.23
2018-07-10T12:30:47.058Z,4.23
2018-07-10T12:33:16.559Z,3.93
2018-07-10T12:35:45.937Z,3.03
2018-07-10T12:38:15.308Z,3.47
2018-07-10T12:40:44.752Z,4.07
2018-07-10T12:43:14.137Z,3.97
2018-07-10T12:45:43.619Z,3.47
2018-07-10T12:48:13.066Z,3.33
2018-07-10T12:50:42.452Z,3.50
2018-07-10T12:53:11.998Z,3.00
2018-07-10T12:55:41.370Z,2.33
2018-07-10T12:58:10.800Z,2.30
2018-07-10T13:00:40.675Z,2.80
2018-07-10T13:03:11.196Z,2.73
2018-07-10T13:05:49.066Z,2.07
2018-07-10T13:08:19.026Z,2.03
2018-07-10T13:10:48.414Z,2.00
2018-07-10T13:13:17.908Z,2.00
2018-07-10T13:15:47.248Z,2.63
2018-07-10T13:18:20.014Z,3.33
2018-07-10T13:20:49.593Z,3.90
2018-07-10T13:23:19.274Z,4.60
2018-07-10T13:25:48.649Z,4.87
2018-07-10T13:28:18.051Z,6.17
2018-07-10T13:30:47.449Z,5.83
2018-07-10T13:33:17.142Z,6.33
2018-07-10T13:35:46.599Z,7.93
2018-07-10T13:38:19.490Z,7.50
2018-07-10T13:40:48.956Z,8.70
2018-07-10T13:43:18.361Z,8.77
2018-07-10T13:45:47.720Z,9.17
2018-07-10T13:48:17.070Z,8.73
2018-07-10T13:50:46.386Z,8.37
2018-07-10T13:53:15.800Z,9.23
2018-07-10T13:55:45.118Z,7.83
2018-07-10T13:58:18.489Z,7.70
2018-07-10T14:00:52.823Z,8.43
2018-07-10T14:03:22.299Z,7.80
2018-07-10T14:05:52.165Z,8.10
2018-07-10T14:08:21.570Z,9.60
2018-07-10T14:10:50.912Z,10.10
2018-07-10T14:13:20.369Z,8.77
2018-07-10T14:15:49.807Z,10.80
2018-07-10T14:18:19.376Z,10.70
2018-07-10T14:20:51.462Z,10.80
2018-07-10T14:23:21.147Z,9.70
2018-07-10T14:25:51.124Z,9.90
2018-07-10T14:28:20.681Z,10.60
2018-07-10T14:30:49.973Z,11.87
2018-07-10T14:33:19.876Z,11.37
2018-07-10T14:35:49.286Z,12.10
2018-07-10T14:38:21.107Z,12.43
2018-07-10T14:40:51.380Z,11.70
2018-07-10T14:43:24.332Z,12.00
2018-07-10T14:45:54.885Z,11.30
2018-07-10T14:48:24.706Z,12.67
2018-07-10T14:50:56.692Z,12.80
2018-07-10T14:53:26.196Z,12.37
2018-07-10T14:55:55.593Z,12.50
2018-07-10T14:58:24.938Z,12.80
2018-07-10T15:00:54.337Z,12.47
2018-07-10T15:03:23.781Z,11.73
2018-07-10T15:05:53.233Z,13.13
2018-07-10T15:08:22.583Z,12.23
2018-07-10T15:10:51.998Z,13.27
2018-07-10T15:13:21.339Z,13.20
2018-07-10T15:15:59.734Z,12.73
2018-07-10T15:18:34.205Z,13.43
2018-07-10T15:21:03.564Z,14.77
2018-07-10T15:23:33.003Z,15.40
2018-07-10T15:26:02.351Z,14.20
2018-07-10T15:28:31.789Z,14.83
2018-07-10T15:31:01.311Z,13.73
2018-07-10T15:33:30.718Z,14.17
2018-07-10T15:36:01.295Z,15.10
2018-07-10T15:38:30.722Z,15.80
2018-07-10T15:41:00.553Z,16.20
2018-07-10T15:43:29.917Z,14.60
2018-07-10T15:45:59.287Z,14.90
2018-07-10T15:48:28.651Z,14.80
2018-07-10T15:50:57.995Z,15.43
2018-07-10T15:53:27.563Z,13.93
2018-07-10T15:55:56.939Z,15.47
2018-07-10T15:58:26.249Z,15.73
2018-07-10T16:00:55.639Z,12.77
2018-07-10T16:03:25.027Z,13.33
2018-07-10T16:05:54.862Z,11.90
2018-07-10T16:08:24.343Z,11.10
2018-07-10T16:11:00.894Z,11.90
2018-07-10T16:13:37.099Z,12.33
2018-07-10T16:16:07.121Z,11.50
2018-07-10T16:18:36.666Z,12.53
2018-07-10T16:21:12.474Z,11.20
2018-07-10T16:23:41.918Z,9.00
2018-07-10T16:26:15.595Z,8.87
2018-07-10T16:28:45.521Z,8.00
2018-07-10T16:31:16.559Z,6.97
2018-07-10T16:33:45.956Z,7.97
2018-07-10T16:36:15.660Z,7.17
2018-07-10T16:38:45.753Z,7.47
2018-07-10T16:41:22.198Z,7.80
2018-07-10T16:43:52.426Z,5.87
2018-07-10T16:46:27.392Z,5.40
2018-07-10T16:49:39.265Z,5.33
2018-07-10T16:52:16.906Z,5.23
2018-07-10T16:54:46.713Z,5.33
2018-07-10T16:57:16.076Z,4.93
2018-07-10T16:59:45.439Z,4.80
2018-07-10T17:02:14.790Z,4.60
2018-07-10T17:04:44.280Z,3.70
2018-07-10T17:07:13.624Z,3.90
2018-07-10T17:09:42.990Z,4.00
2018-07-10T17:12:12.300Z,2.93
2018-07-10T17:14:47.429Z,4.00
2018-07-10T17:17:16.870Z,4.83
2018-07-10T17:19:46.189Z,5.60
2018-07-10T17:22:15.461Z,3.20
2018-07-10T17:24:44.849Z,4.10
2018-07-10T17:27:14.247Z,3.60
2018-07-10T17:29:43.641Z,3.50
2018-07-10T17:32:12.949Z,3.97
2018-07-10T17:34:42.294Z,3.90
2018-07-10T17:37:11.606Z,4.50
2018-07-10T17:39:40.964Z,4.90
2018-07-10T17:42:10.318Z,5.23
2018-07-10T17:44:39.694Z,4.93
2018-07-10T17:47:09.211Z,6.00
2018-07-10T17:49:38.559Z,5.93
2018-07-10T17:52:08.114Z,5.30
2018-07-10T17:54:36.636Z,5.83
2018-07-10T17:57:05.942Z,5.27
2018-07-10T17:59:35.562Z,6.33
2018-07-10T18:02:13.234Z,6.07
2018-07-10T18:04:42.947Z,5.10
2018-07-10T18:07:12.443Z,5.90
2018-07-10T18:09:41.834Z,6.23
2018-07-10T18:12:11.172Z,6.40
2018-07-10T18:14:40.550Z,6.00
2018-07-10T18:17:09.989Z,7.33
2018-07-10T18:19:39.452Z,6.27
2018-07-10T18:22:09.173Z,7.80
2018-07-10T18:24:38.518Z,7.10
2018-07-10T18:27:07.906Z,6.43
2018-07-10T18:29:37.351Z,5.90
2018-07-10T18:32:06.729Z,5.77
2018-07-10T18:34:36.090Z,6.13
2018-07-10T18:37:05.500Z,6.50
2018-07-10T18:39:34.840Z,6.60
2018-07-10T18:42:04.401Z,7.20
2018-07-10T18:44:33.682Z,7.40
2018-07-10T18:47:03.146Z,8.70
2018-07-10T18:49:32.613Z,8.60
2018-07-10T18:52:02.062Z,8.70
2018-07-10T18:54:36.849Z,10.07
2018-07-10T18:57:19.660Z,8.90
2018-07-10T19:00:00.338Z,10.20
2018-07-10T19:03:06.240Z,9.03
2018-07-10T19:05:47.017Z,8.47
2018-07-10T19:08:16.735Z,8.93
2018-07-10T19:10:47.093Z,8.53
2018-07-10T19:13:17.441Z,9.27
2018-07-10T19:15:48.313Z,8.40
2018-07-10T19:18:18.102Z,8.30
2018-07-10T19:20:58.080Z,9.53
2018-07-10T19:23:37.259Z,8.87
2018-07-10T19:26:07.326Z,9.77
2018-07-10T19:28:36.717Z,9.97
2018-07-10T19:31:14.233Z,10.03
2018-07-10T19:33:44.850Z,10.07
2018-07-10T19:36:14.286Z,10.60
2018-07-10T19:38:43.689Z,10.70
2018-07-10T19:41:13.063Z,10.20
2018-07-10T19:43:42.547Z,10.63
2018-07-10T19:46:12.129Z,10.63
2018-07-10T19:48:45.314Z,10.50
2018-07-10T19:51:14.754Z,9.80
2018-07-10T19:53:46.410Z,10.13
2018-07-10T19:56:15.763Z,9.33
2018-07-10T19:58:45.739Z,10.90
2018-07-10T20:01:20.101Z,9.97
2018-07-10T20:04:05.754Z,10.20
2018-07-10T20:06:40.085Z,9.87
2018-07-10T20:09:14.231Z,10.20
2018-07-10T20:11:56.267Z,10.10
2018-07-10T20:14:25.840Z,11.10
2018-07-10T20:17:03.688Z,9.80
2018-07-10T20:19:43.124Z,10.47
2018-07-10T20:22:16.037Z,10.83
2018-07-10T20:25:01.305Z,10.80
2018-07-10T20:27:37.528Z,11.60
2018-07-10T20:30:16.568Z,10.63
2018-07-10T20:32:54.231Z,10.20
2018-07-10T20:35:28.311Z,10.03
2018-07-10T20:37:58.654Z,10.87
2018-07-10T20:40:32.962Z,10.60
2018-07-10T20:43:10.414Z,10.53
2018-07-10T20:46:01.121Z,10.90
2018-07-10T20:48:40.018Z,11.17
2018-07-10T20:51:11.394Z,11.17
2018-07-10T20:54:17.544Z,9.80
2018-07-10T20:57:01.308Z,11.17
2018-07-10T20:59:38.181Z,10.83
2018-07-10T21:02:10.124Z,11.10
2018-07-10T21:04:49.940Z,11.20
2018-07-10T21:07:28.745Z,10.07
2018-07-10T21:10:09.765Z,12.10
2018-07-10T21:12:48.085Z,11.87
2018-07-10T21:15:34.792Z,13.47
2018-07-10T21:18:16.719Z,11.83
2018-07-10T21:20:57.251Z,11.77
2018-07-10T21:23:38.372Z,12.93
2018-07-10T21:26:19.566Z,14.03
2018-07-10T21:28:53.973Z,13.47
2018-07-10T21:31:34.005Z,13.87
2018-07-10T21:34:11.073Z,13.13
2018-07-10T21:36:57.515Z,14.17
2018-07-10T21:39:37.039Z,14.07
2018-07-10T21:42:19.507Z,14.40
2018-07-10T21:47:02.020Z,13.57
2018-07-10T21:50:03.573Z,15.30
2018-07-10T21:52:33.569Z,15.20
2018-07-10T21:55:04.003Z,17.00
2018-07-10T21:57:40.650Z,14.83
2018-07-10T22:00:10.861Z,16.57
2018-07-10T22:02:41.027Z,15.93
2018-07-10T22:05:11.276Z,17.70
2018-07-10T22:07:41.603Z,17.60
2018-07-10T22:10:11.797Z,18.63
2018-07-10T22:12:47.189Z,15.80
2018-07-10T22:15:17.357Z,15.40
2018-07-10T22:17:47.683Z,14.67
2018-07-10T22:20:17.349Z,16.27
2018-07-10T22:22:46.924Z,15.87
2018-07-10T22:25:16.809Z,15.73
2018-07-10T22:27:46.793Z,16.33
2018-07-10T22:30:21.815Z,15.80
2018-07-10T22:32:56.295Z,13.63
2018-07-10T22:35:26.527Z,14.80
2018-07-10T22:37:56.649Z,16.00
2018-07-10T22:40:26.283Z,14.73
2018-07-10T22:42:56.637Z,14.63
2018-07-10T22:45:28.068Z,14.87
2018-07-10T22:47:58.214Z,14.50
2018-07-10T22:50:28.460Z,14.00
2018-07-10T22:53:00.808Z,12.77
2018-07-10T22:55:31.992Z,13.40
2018-07-10T22:58:06.286Z,12.20
2018-07-10T23:00:37.380Z,13.20
2018-07-10T23:03:26.976Z,14.00
2018-07-10T23:05:56.773Z,13.50
2018-07-10T23:08:35.347Z,14.50
2018-07-10T23:11:06.615Z,14.57
2018-07-10T23:13:40.712Z,14.50
2018-07-10T23:16:09.946Z,14.37
2018-07-10T23:18:39.896Z,14.70
2018-07-10T23:21:12.204Z,15.67
2018-07-10T23:23:42.159Z,16.10
2018-07-10T23:26:15.730Z,17.77
2018-07-10T23:28:45.326Z,17.53
2018-07-10T23:31:14.892Z,17.37
2018-07-10T23:33:45.247Z,17.33
2018-07-10T23:36:14.472Z,17.00
2018-07-10T23:39:16.204Z,15.40
2018-07-10T23:42:49.773Z,15.53
2018-07-10T23:45:25.354Z,13.40
2018-07-10T23:47:55.171Z,14.13
2018-07-10T23:50:27.167Z,15.30
2018-07-10T23:53:07.488Z,14.30
2018-07-10T23:55:36.596Z,16.00
2018-07-10T23:58:06.037Z,15.90
